Terminal Aerodrome Forecast
Issued by NWS Albany, NY

Home | Current Version | Previous Version | Text Only | Print | Product List | Glossary On
Versions: 1 2 3 4 5 6 7 8 9 10 11 12 13 14 15 16 17
915
FTUS41 KALY 200520
TAFGFL
TAF
KGFL 200520Z 2006/2106 30009KT P6SM VCSH SCT040 BKN070
     FM201200 32012G20KT P6SM BKN050
     FM210000 31008KT P6SM SCT050=

USA.gov is the U.S. government's official web portal to all federal, state and local government web resources and services.